»·PEaware :: N872G KBUR-KSJC

N872G :: KBUR-KSJC

FLIGHT INFORMATION

Flight Status: Arrived
Operator: Privately registered:
United States
More flights under this callsign
Pilot: Gabor H. (24209)
Aircraft: CESSNA 510 CITATION MUSTANG
(C510)
More flights by this aircraft type
Origin: KBUR Bob Hope-Burbank
United States
Destination: KSJC Mineta San Jose Intl
United States
More flights between these airports :: More routes between these airports
Route: OROSZ2 COREZ MARKS TROXX SILCN5
File this flight plan on PilotEdge
Remarks:
Altitude:
(Current/Filed)
28,000ft
Speed:
(Current/Filed)
340kts
Departed: 21-Jun-21 07:50 AM
Arrived: 21-Jun-21 08:47 AM
Distance/Time
Traveled:
257nm/0:56
Distance/Time
To Go:
Arrived

Flight Plot

Page will automatically refresh every two minutes.

Flight plan parsing failed; only flown route is shown


Map Options




Map Legend


Flown Route
Filed Route
Departure Airport
Arrival Airport
Navaid (VOR, NDB)
Fix

Horizontal Profiles

Position Reports

Time Latitude Longitude Heading Altitude Ground
Speed
21-Jun-21 07:08 34.194576 -118.358520 68 781ft 0kts
21-Jun-21 07:09 34.194576 -118.358520 68 781ft 0kts
21-Jun-21 07:10 34.194576 -118.358520 68 781ft 0kts
21-Jun-21 07:11 34.194576 -118.358520 68 781ft 0kts
21-Jun-21 07:12 34.194576 -118.358520 68 781ft 0kts
21-Jun-21 07:13 34.194576 -118.358520 68 781ft 0kts
21-Jun-21 07:14 34.194576 -118.358520 68 781ft 0kts
21-Jun-21 07:15 34.194576 -118.358520 68 781ft 0kts
21-Jun-21 07:16 34.194576 -118.358520 68 781ft 0kts
21-Jun-21 07:17 34.194576 -118.358520 68 781ft 0kts
21-Jun-21 07:19 34.194576 -118.358520 68 781ft 0kts
21-Jun-21 07:20 34.194576 -118.358520 68 781ft 0kts
21-Jun-21 07:21 34.194576 -118.358520 68 781ft 0kts
21-Jun-21 07:22 34.194576 -118.358520 68 781ft 0kts
21-Jun-21 07:23 34.194576 -118.358520 68 781ft 0kts
21-Jun-21 07:24 34.194576 -118.358520 68 781ft 0kts
21-Jun-21 07:25 34.194576 -118.358520 68 781ft 0kts
21-Jun-21 07:26 34.194576 -118.358520 68 781ft 0kts
21-Jun-21 07:27 34.194576 -118.358520 68 781ft 0kts
21-Jun-21 07:28 34.194576 -118.358520 68 781ft 0kts
21-Jun-21 07:29 34.194576 -118.358520 68 781ft 0kts
21-Jun-21 07:30 34.194576 -118.358520 68 781ft 0kts
21-Jun-21 07:31 34.194576 -118.358520 68 781ft 0kts
21-Jun-21 07:32 34.194576 -118.358520 68 781ft 0kts
21-Jun-21 07:33 34.194576 -118.358520 68 781ft 0kts
21-Jun-21 07:34 34.194576 -118.358520 68 781ft 0kts
21-Jun-21 07:35 34.194576 -118.358520 68 781ft 0kts
21-Jun-21 07:36 34.194576 -118.358520 68 781ft 0kts
21-Jun-21 07:37 34.194576 -118.358520 68 781ft 0kts
21-Jun-21 07:38 34.194576 -118.358520 68 781ft 0kts
21-Jun-21 07:39 34.194576 -118.358520 68 781ft 0kts
21-Jun-21 07:40 34.194576 -118.358520 68 781ft 0kts
21-Jun-21 07:41 34.194576 -118.358520 68 781ft 0kts
21-Jun-21 07:41 34.194576 -118.358520 68 781ft 0kts
21-Jun-21 07:42 34.194576 -118.358520 68 781ft 0kts
21-Jun-21 07:43 34.194576 -118.358520 68 781ft 0kts
21-Jun-21 07:45 34.195328 -118.358144 11 781ft 1kts
21-Jun-21 07:46 34.196094 -118.357940 8 781ft 9kts
21-Jun-21 07:46 34.196857 -118.361417 268 781ft 20kts
21-Jun-21 07:47 34.196948 -118.367483 271 781ft 17kts
21-Jun-21 07:48 34.197855 -118.368794 60 781ft 12kts
21-Jun-21 07:49 34.195979 -118.330454 114 1466ft 203kts
21-Jun-21 07:50 34.148257 -118.343719 222 4019ft 245kts
21-Jun-21 07:51 34.140369 -118.407665 336 4016ft 246kts
21-Jun-21 07:52 34.200325 -118.427714 305 7652ft 211kts
21-Jun-21 07:53 34.246636 -118.484222 310 10057ft 238kts
21-Jun-21 07:54 34.291589 -118.540361 307 12867ft 239kts
21-Jun-21 07:55 34.338689 -118.600959 308 15135ft 256kts
21-Jun-21 07:56 34.394669 -118.656968 331 17225ft 278kts
21-Jun-21 07:57 34.464209 -118.700860 326 19198ft 287kts
21-Jun-21 07:58 34.534459 -118.750184 325 21020ft 297kts
21-Jun-21 07:59 34.606759 -118.801338 325 22651ft 307kts
21-Jun-21 08:00 34.681459 -118.854332 325 24086ft 316kts
21-Jun-21 08:01 34.757994 -118.908766 324 25409ft 324kts
21-Jun-21 08:02 34.836840 -118.964993 324 26620ft 332kts
21-Jun-21 08:03 34.917476 -119.022589 324 27664ft 341kts
21-Jun-21 08:04 35.001851 -119.083102 325 27974ft 368kts
21-Jun-21 08:05 35.092355 -119.148033 325 27969ft 382kts
21-Jun-21 08:06 35.183190 -119.213273 325 27958ft 376kts
21-Jun-21 08:07 35.272676 -119.277814 324 27959ft 374kts
21-Jun-21 08:08 35.361995 -119.342441 324 27961ft 374kts
21-Jun-21 08:09 35.451351 -119.407245 324 27966ft 374kts
21-Jun-21 08:10 35.540800 -119.472292 324 27972ft 375kts
21-Jun-21 08:11 35.577647 -119.568104 254 27972ft 321kts
21-Jun-21 08:12 35.586675 -119.680931 270 27965ft 338kts
21-Jun-21 08:13 35.603089 -119.794748 271 27965ft 339kts
21-Jun-21 08:14 35.619799 -119.908667 271 27965ft 339kts
21-Jun-21 08:15 35.636413 -120.022662 271 27967ft 339kts
21-Jun-21 08:16 35.652941 -120.136604 271 27997ft 339kts
21-Jun-21 08:17 35.669383 -120.250721 271 28028ft 339kts
21-Jun-21 08:18 35.692569 -120.363243 295 28036ft 360kts
21-Jun-21 08:19 35.747488 -120.466413 295 28039ft 361kts
21-Jun-21 08:20 35.802455 -120.570000 295 28039ft 361kts
21-Jun-21 08:21 35.857260 -120.673879 294 28042ft 362kts
21-Jun-21 08:22 35.912032 -120.777909 294 28042ft 362kts
21-Jun-21 08:23 35.966520 -120.881873 295 28043ft 362kts
21-Jun-21 08:24 36.026047 -120.982376 320 28040ft 379kts
21-Jun-21 08:25 36.110802 -121.059354 317 28035ft 379kts
21-Jun-21 08:26 36.197009 -121.141387 317 26357ft 404kts
21-Jun-21 08:27 36.283937 -121.224422 318 24247ft 387kts
21-Jun-21 08:28 36.366238 -121.303205 319 22334ft 364kts
21-Jun-21 08:29 36.445727 -121.379843 319 20377ft 365kts
21-Jun-21 08:30 36.526331 -121.449888 330 19041ft 346kts
21-Jun-21 08:31 36.612651 -121.508452 330 18064ft 351kts
21-Jun-21 08:32 36.698708 -121.566886 330 18003ft 357kts
21-Jun-21 08:33 36.783844 -121.624960 330 16477ft 341kts
21-Jun-21 08:34 36.865908 -121.681098 329 14633ft 330kts
21-Jun-21 08:35 36.942038 -121.733367 329 12723ft 315kts
21-Jun-21 08:36 37.015195 -121.783737 330 10853ft 296kts
21-Jun-21 08:37 37.085742 -121.832265 330 9143ft 286kts
21-Jun-21 08:38 37.153733 -121.878839 330 7991ft 260kts
21-Jun-21 08:39 37.219809 -121.924056 330 6784ft 272kts
21-Jun-21 08:40 37.285586 -121.966666 333 5194ft 254kts
21-Jun-21 08:41 37.337505 -122.013965 316 3235ft 220kts
21-Jun-21 08:42 37.386157 -122.048051 29 1406ft 198kts
21-Jun-21 08:43 37.406799 -122.003293 103 1199ft 138kts
21-Jun-21 08:44 37.392184 -121.963805 132 844ft 122kts
21-Jun-21 08:45 37.369125 -121.936988 140 82ft 100kts
21-Jun-21 08:46 37.362280 -121.930738 226 67ft 0kts
21-Jun-21 08:47 37.361302 -121.932103 226 67ft 11kts
21-Jun-21 08:48 37.358173 -121.929375 168 67ft 3kts
21-Jun-21 08:49 37.357722 -121.929636 230 67ft 0kts

Navigation Log

Ident Type
Flight plan parsing failed, navigation log unavailable